Warning: Javascript must be enabled to use all the features on this page!


Page Loading - Please Wait...

Click to hideNews Bulletins

Peak Streamflow for the Nation

USGS 07176500 Bird Creek at Avant, OK

Osage County, Oklahoma
Hydrologic Unit Code 11070107
Latitude  36°29'06", Longitude  96°03'36" NAD27
Drainage area 369  square miles
Contributing drainage area 369  square miles
Gage datum 646.39 feet above NAVD88
Output formats
Table
Graph
Tab-separated file
peakfq (watstore) format
Reselect output format
Water
Year
Date Gage
Height
(feet)
Stream-
flow
(cfs)
1943 1943-05 29.60Bd  
1946 1946-05-09 7.21 6,920
1947 1947-05-16 14.97 10,400
1948 1948-06-26 20.47 14,500
1949 1949-05-19 14.80 10,300
1950 1950-08-01 20.28 14,300
1951 1951-06-21 16.17 11,200
1952 1951-11-12 13.71 9,700
1953 1953-05-12 17.15 11,900
1954 1954-05-02 16.72 11,500
1955 1955-05-20 14.24 9,970
1956 1955-10-05 3.69 1,320
1957 1957-06-12 29.00 25,400
1958 1958-03-23 5.25 4,100
1959 1959-07-15 17.21 12,800
1960 1959-10-02 31.40 32,400
1961 1961-09-13 27.72 24,600
1962 1962-09-15 22.71 15,200
1963 1963-01-05 4.44 2,740
1964 1964-04-04 11.88 8,690
1965 1965-09-21 17.63 13,100
1966 1966-09-02 5.00 3,780
1967 1967-07-25 14.45 9,200
1968 1968-03-19 24.32 17,800
1969 1969-06-27 25.88 19,500
1970 1970-04-30 25.86 18,200
1971 1971-09-06 14.91 9,150
1972 1971-12-15 21.90 14,500
1973 1973-04-16 23.22 15,700
1974 1974-03-11 32.03 32,300
1975 1974-11-03 29.78 23,900
1976 1976-07-04 17.60 11,000
1977 1977-05-21 13.84 7,710
1978 1978-02-13 14.40 7,9905
1979 1979-03-18 15.05 8,3105
1980 1979-11-21 18.05 12,1005
1981 1981-05-13 11.07 7,3205
1982 1982-05-17 16.75 11,7005
1983 1983-06-28 17.80 12,3005
1984 1984-03-24 15.83 11,1005
1985 1985-06-10 30.70 27,9005
1986 1986-09-30 30.54 27,6005
1987 1986-10-03 23.74 16,4005
1988 1988-04-01 23.47 16,2005
1989 1989-09-05 19.19 13,1005
1990 1990-03-11 24.67 17,2005
1991 1991-06-06 22.88 20,4005
1992 1992-06-19 16.75 14,0005
1993 1993-05-09 28.03 27,5005
1994 1994-04-11 25.98 25,7005
1995 1995-07-03 27.44 27,4005
1996 1996-09-26 16.68 15,0005
1997 1996-11-17 19.40 18,1005
1998 1998-04-27 20.87 19,8005
1999 1999-04-25 26.03 25,8005
2000 2000-05-06 20.64 21,9005
2001 2001-02-24 9.06 9,7105
2002 2002-04-23 9.68 10,0005
2003 2003-03-19 12.45 13,9005
2004 2004-03-04 22.635 23,4005
2005 2005-01-05 13.88 10,7005
2006 2006-04-29 5.97 2,5205
2007 2007-06-30 22.33 21,6005
2008 2008-06-09 27.58 27,5005
2009 2009-04-30 14.36 12,7005
2010 2010-06-14 19.99 16,2005
2011 2011-04-25 7.43 3,7305
2012 2012-04-30 16.66 14,7005
2013 2013-05-30 19.22 17,5005
2014 2014-07-10 6.61 3,1605
2015 2015-05-24 15.03 13,0005
2016 2015-12-27 12.14 9,8305
2017 2017-04-30 23.79 22,5005
2018 2017-10-04 14.04 11,9005
2019 2019-05-21 36.31 36,4005
2020 2020-03-19 9.26 6,6405
2021 2021-03-13 21.60 20,1005
?
  Peak Gage-Height Qualification Codes.
?
  Peak Streamflow Qualification Codes.